Grand Marais, Minnesota
Current Conditions -  °F | °C
As of 6:13 AM on Monday 24 Nov 2014 (Local Time) from KCKC Reporting Station
Light Snow Light Snow  
Wind Chill: 11°   Ceiling: 1600
Heat Index: 25°   Visibility: 1.7mi
Dew Point: 21°   Wind: 17mph
Humidity: 86%   Direction: 340°NNW
Pressure: 29.14"   Gusts: 30mph
Location:  47.75°N, 90.33°W
Report Text: KCKC 241213Z AUTO 34015G26KT 1 3/4SM -SN SCT009 OVC016 M04/M06 A2914 RMK AO2
Loading
Personal Weather Stations






























Interactive Weather Map New forecast layout! Learn more

10-Day Weather Forecast

Advertisements
Track Severe Weather on mobile